createdAt,value
2022-12-03T00:01:22.211Z,33.72
2022-12-03T00:04:25.028Z,30.20
2022-12-03T00:07:27.338Z,33.88
2022-12-03T00:10:30.182Z,29.42
2022-12-03T00:13:32.434Z,32.17
2022-12-03T00:16:35.026Z,30.02
2022-12-03T00:19:37.237Z,33.42
2022-12-03T00:22:39.713Z,32.08
2022-12-03T00:25:41.918Z,35.00
2022-12-03T00:28:45.671Z,37.33
2022-12-03T00:31:48.829Z,34.95
2022-12-03T00:34:51.696Z,33.97
2022-12-03T00:37:54.898Z,34.50
2022-12-03T00:40:57.384Z,40.40
2022-12-03T00:43:59.676Z,36.38
2022-12-03T00:47:02.323Z,33.45
2022-12-03T00:50:05.614Z,34.88
2022-12-03T00:53:08.146Z,38.70
2022-12-03T00:56:10.361Z,32.92
2022-12-03T00:59:12.973Z,32.78
2022-12-03T01:02:16.039Z,31.10
2022-12-03T01:05:19.850Z,36.78
2022-12-03T01:08:22.190Z,34.85
2022-12-03T01:11:41.245Z,38.53
2022-12-03T01:14:44.112Z,39.22
2022-12-03T01:17:46.900Z,34.95
2022-12-03T01:20:49.218Z,33.08
2022-12-03T01:23:51.858Z,36.47
2022-12-03T01:26:55.873Z,38.67
2022-12-03T01:29:58.354Z,45.83
2022-12-03T01:33:00.537Z,37.30
2022-12-03T01:36:03.184Z,35.55
2022-12-03T01:39:05.473Z,37.42
2022-12-03T01:42:11.951Z,33.75
2022-12-03T01:45:22.963Z,41.78
2022-12-03T01:48:25.457Z,39.78
2022-12-03T01:51:27.697Z,34.08
2022-12-03T01:54:38.854Z,37.92
2022-12-03T01:57:45.416Z,33.55
2022-12-03T02:00:48.220Z,41.25
2022-12-03T02:03:50.944Z,35.50
2022-12-03T02:06:53.574Z,35.08
2022-12-03T02:09:58.137Z,35.75
2022-12-03T02:13:07.563Z,36.47
2022-12-03T02:16:10.139Z,36.38
2022-12-03T02:19:26.791Z,35.75
2022-12-03T02:22:40.651Z,32.15
2022-12-03T02:25:43.138Z,38.65
2022-12-03T02:28:45.365Z,33.42
2022-12-03T02:31:47.942Z,34.33
2022-12-03T02:34:52.240Z,33.42
2022-12-03T02:38:00.213Z,37.42
2022-12-03T02:41:07.293Z,34.63
2022-12-03T02:44:10.047Z,40.28
2022-12-03T02:47:12.999Z,33.45
2022-12-03T02:50:20.020Z,32.97
2022-12-03T02:53:32.491Z,36.45
2022-12-03T02:56:35.181Z,32.78
2022-12-03T02:59:37.466Z,29.65
2022-12-03T03:02:41.374Z,36.03
2022-12-03T03:05:45.151Z,29.98
2022-12-03T03:11:50.281Z,33.65
2022-12-03T03:14:53.003Z,39.13
2022-12-03T03:17:55.860Z,31.52
2022-12-03T03:20:59.136Z,34.40
2022-12-03T03:24:01.425Z,35.65
2022-12-03T03:27:05.115Z,36.55
2022-12-03T03:30:09.646Z,35.13
2022-12-03T03:33:14.418Z,34.83
2022-12-03T03:36:17.233Z,31.87
2022-12-03T03:39:19.874Z,37.40
2022-12-03T03:42:22.794Z,37.17
2022-12-03T03:45:29.080Z,40.00
2022-12-03T03:48:34.516Z,35.15
2022-12-03T03:51:38.681Z,33.83
2022-12-03T03:54:41.017Z,37.47
2022-12-03T03:57:43.595Z,36.60
2022-12-03T04:00:46.574Z,34.22
2022-12-03T04:03:49.209Z,33.65
2022-12-03T04:06:51.453Z,35.78
2022-12-03T04:09:53.974Z,39.28
2022-12-03T04:12:56.434Z,35.60
2022-12-03T04:15:59.095Z,32.88
2022-12-03T04:19:01.317Z,37.67
2022-12-03T04:22:22.110Z,37.28
2022-12-03T04:25:43.042Z,33.88
2022-12-03T04:28:51.128Z,35.70
2022-12-03T04:32:11.686Z,34.55
2022-12-03T04:35:33.281Z,34.28
2022-12-03T04:38:35.673Z,38.22
2022-12-03T04:41:38.154Z,37.70
2022-12-03T04:44:40.745Z,36.63
2022-12-03T04:47:44.706Z,45.33
2022-12-03T04:50:47.012Z,36.17
2022-12-03T04:53:49.522Z,39.63
2022-12-03T04:56:51.820Z,35.78
2022-12-03T04:59:54.289Z,37.75
2022-12-03T05:02:56.560Z,38.38
2022-12-03T05:05:59.478Z,41.37
2022-12-03T05:09:01.775Z,43.72
2022-12-03T05:12:04.582Z,35.53
2022-12-03T05:15:07.328Z,37.08
2022-12-03T05:18:09.843Z,40.03
2022-12-03T05:21:12.273Z,39.55
2022-12-03T05:24:14.810Z,40.12
2022-12-03T05:27:23.140Z,39.00
2022-12-03T05:30:26.458Z,39.88
2022-12-03T05:33:28.766Z,39.10
2022-12-03T05:36:34.310Z,42.15
2022-12-03T05:39:36.937Z,39.10
2022-12-03T05:42:55.204Z,35.15
2022-12-03T05:45:57.477Z,35.92
2022-12-03T05:49:00.054Z,37.97
2022-12-03T05:52:02.618Z,39.40
2022-12-03T05:55:05.664Z,37.05
2022-12-03T05:58:08.262Z,38.55
2022-12-03T06:01:10.872Z,33.67
2022-12-03T06:04:13.428Z,38.80
2022-12-03T06:07:15.763Z,34.55
2022-12-03T06:10:28.331Z,37.30
2022-12-03T06:13:30.559Z,39.72
2022-12-03T06:16:33.160Z,39.85
2022-12-03T06:19:35.944Z,35.33
2022-12-03T06:22:38.446Z,35.05
2022-12-03T06:25:40.802Z,36.03
2022-12-03T06:28:47.708Z,37.63
2022-12-03T06:31:50.048Z,45.85
2022-12-03T06:34:52.915Z,33.97
2022-12-03T06:37:55.541Z,40.03
2022-12-03T06:40:58.182Z,38.50
2022-12-03T06:44:03.598Z,38.53
2022-12-03T06:47:06.330Z,38.33
2022-12-03T06:50:10.554Z,38.80
2022-12-03T06:53:13.081Z,38.75
2022-12-03T06:56:18.844Z,40.40
2022-12-03T06:59:24.025Z,43.28
2022-12-03T07:02:26.365Z,38.65
2022-12-03T07:05:28.959Z,35.83
2022-12-03T07:08:31.177Z,42.97
2022-12-03T07:11:39.889Z,38.05
2022-12-03T07:14:42.168Z,38.05
2022-12-03T07:17:44.737Z,37.25
2022-12-03T07:20:47.071Z,41.15
2022-12-03T07:23:49.605Z,38.90
2022-12-03T07:26:51.987Z,43.78
2022-12-03T07:29:54.574Z,39.00
2022-12-03T07:32:57.068Z,40.58
2022-12-03T07:35:59.613Z,39.05
2022-12-03T07:39:01.856Z,43.75
2022-12-03T07:42:04.496Z,39.35
2022-12-03T07:45:07.427Z,41.22
2022-12-03T07:48:10.395Z,42.63
2022-12-03T07:51:15.270Z,39.13
2022-12-03T07:54:18.190Z,41.37
2022-12-03T07:57:20.880Z,42.13
2022-12-03T08:00:23.566Z,38.88
2022-12-03T08:03:26.132Z,38.60
2022-12-03T08:06:28.422Z,43.45
2022-12-03T08:09:31.511Z,43.42
2022-12-03T08:12:40.877Z,40.85
2022-12-03T08:15:44.054Z,44.30
2022-12-03T08:18:48.378Z,43.90
2022-12-03T08:21:52.320Z,42.90
2022-12-03T08:24:58.717Z,49.30
2022-12-03T08:28:28.255Z,44.65
2022-12-03T08:31:33.653Z,47.35
2022-12-03T08:34:42.524Z,41.33
2022-12-03T08:37:44.881Z,41.90
2022-12-03T08:40:51.018Z,46.17
2022-12-03T08:43:53.238Z,45.22
2022-12-03T08:47:21.747Z,43.50
2022-12-03T08:50:30.151Z,41.92
2022-12-03T08:53:47.669Z,44.33
2022-12-03T08:56:50.036Z,37.90
2022-12-03T09:00:10.050Z,38.20
2022-12-03T09:03:19.349Z,42.72
2022-12-03T09:06:22.902Z,39.58
2022-12-03T09:09:25.583Z,43.65
2022-12-03T09:12:28.070Z,33.97
2022-12-03T09:15:30.307Z,32.60
2022-12-03T09:18:33.688Z,40.45
2022-12-03T09:21:36.129Z,29.17
2022-12-03T09:24:38.651Z,31.50
2022-12-03T09:27:40.915Z,33.33
2022-12-03T09:30:46.383Z,34.97
2022-12-03T09:33:48.860Z,30.40
2022-12-03T09:36:51.443Z,29.92
2022-12-03T09:39:53.691Z,29.00
2022-12-03T09:42:58.643Z,33.05
2022-12-03T09:46:01.448Z,32.85
2022-12-03T09:49:12.320Z,34.27
2022-12-03T09:52:27.563Z,36.13
2022-12-03T09:55:31.166Z,31.52
2022-12-03T09:58:35.030Z,32.78
2022-12-03T10:01:38.416Z,33.20
2022-12-03T10:04:44.247Z,32.33
2022-12-03T10:07:48.344Z,33.53
2022-12-03T10:10:57.100Z,29.98
2022-12-03T10:13:59.496Z,27.35
2022-12-03T10:17:02.264Z,30.40
2022-12-03T10:20:05.147Z,33.25
2022-12-03T10:23:07.683Z,32.97
2022-12-03T10:26:10.122Z,28.17
2022-12-03T10:29:29.630Z,29.10
2022-12-03T10:32:47.512Z,26.00
2022-12-03T10:35:50.034Z,26.33
2022-12-03T10:39:12.530Z,29.35
2022-12-03T10:42:16.335Z,28.62
2022-12-03T10:45:22.691Z,22.45
2022-12-03T10:48:27.385Z,24.42
2022-12-03T10:51:30.924Z,23.60
2022-12-03T10:57:42.380Z,29.35
2022-12-03T11:00:48.479Z,22.15
2022-12-03T11:03:51.846Z,20.83
2022-12-03T11:06:55.346Z,20.83
2022-12-03T11:09:58.897Z,21.70
2022-12-03T11:16:45.446Z,25.12
2022-12-03T11:19:48.849Z,17.50
2022-12-03T11:22:55.618Z,20.13
2022-12-03T11:25:58.318Z,19.33
2022-12-03T11:29:00.643Z,23.92
2022-12-03T11:32:03.283Z,20.23
2022-12-03T11:35:13.034Z,20.85
2022-12-03T11:38:37.547Z,23.75
2022-12-03T11:42:29.002Z,20.70
2022-12-03T11:45:36.645Z,17.87
2022-12-03T11:48:45.296Z,17.50
2022-12-03T11:51:48.340Z,20.85
2022-12-03T11:54:56.273Z,19.00
2022-12-03T11:58:04.368Z,23.92
2022-12-03T12:01:08.290Z,20.40
2022-12-03T12:04:43.064Z,16.40
2022-12-03T12:07:47.934Z,16.67
2022-12-03T12:10:50.555Z,18.50
2022-12-03T12:13:55.621Z,17.08
2022-12-03T12:17:03.203Z,19.40
2022-12-03T12:20:27.107Z,19.52
2022-12-03T12:23:29.694Z,14.98
2022-12-03T12:26:31.944Z,22.73
2022-12-03T12:29:35.859Z,18.15
2022-12-03T12:33:07.072Z,17.70
2022-12-03T12:36:10.106Z,17.52
2022-12-03T12:39:14.733Z,17.48
2022-12-03T12:42:52.336Z,17.85
2022-12-03T12:45:56.697Z,19.77
2022-12-03T12:48:59.993Z,18.70
2022-12-03T12:52:02.492Z,21.53
2022-12-03T12:55:10.441Z,16.87
2022-12-03T12:58:19.490Z,19.17
2022-12-03T13:01:32.403Z,17.62
2022-12-03T13:04:39.955Z,19.23
2022-12-03T13:07:43.932Z,19.17
2022-12-03T13:10:47.583Z,17.65
2022-12-03T13:13:50.739Z,20.13
2022-12-03T13:16:56.049Z,20.37
2022-12-03T13:20:07.230Z,19.33
2022-12-03T13:23:29.854Z,21.98
2022-12-03T13:26:39.450Z,19.23
2022-12-03T13:29:42.195Z,18.30
2022-12-03T13:32:44.732Z,21.33
2022-12-03T13:35:47.098Z,18.77
2022-12-03T13:38:49.810Z,23.27
2022-12-03T13:42:11.117Z,22.05
2022-12-03T13:45:13.595Z,21.00
2022-12-03T13:48:27.518Z,21.00
2022-12-03T13:54:38.986Z,20.02
2022-12-03T13:57:41.545Z,21.73
2022-12-03T14:00:43.984Z,20.08
2022-12-03T14:03:46.571Z,21.62
2022-12-03T14:06:48.847Z,21.50
2022-12-03T14:09:51.854Z,20.75
2022-12-03T14:12:54.985Z,21.80
2022-12-03T14:15:57.632Z,19.50
2022-12-03T14:19:00.145Z,21.55
2022-12-03T14:22:02.788Z,21.00
2022-12-03T14:25:06.888Z,21.02
2022-12-03T14:28:09.953Z,23.17
2022-12-03T14:31:12.228Z,23.38
2022-12-03T14:34:14.793Z,22.27
2022-12-03T14:37:17.472Z,23.55
2022-12-03T14:40:21.991Z,21.17
2022-12-03T14:43:24.509Z,19.87
2022-12-03T14:46:27.126Z,20.83
2022-12-03T14:49:29.699Z,21.62
2022-12-03T14:52:32.438Z,22.10
2022-12-03T14:55:34.886Z,22.35
2022-12-03T14:58:37.439Z,23.30
2022-12-03T15:01:39.770Z,23.15
2022-12-03T15:04:42.439Z,24.75
2022-12-03T15:07:45.010Z,20.20
2022-12-03T15:10:47.547Z,22.70
2022-12-03T15:13:49.859Z,23.35
2022-12-03T15:16:52.462Z,22.17
2022-12-03T15:19:55.073Z,25.98
2022-12-03T15:22:58.151Z,22.77
2022-12-03T15:26:00.494Z,22.67
2022-12-03T15:29:03.154Z,25.17
2022-12-03T15:32:05.764Z,24.50
2022-12-03T15:35:08.715Z,21.25
2022-12-03T15:38:11.955Z,22.25
2022-12-03T15:41:29.820Z,21.08
2022-12-03T15:44:32.069Z,24.65
2022-12-03T15:47:34.630Z,28.77
2022-12-03T15:50:40.265Z,22.95
2022-12-03T15:53:43.135Z,25.55
2022-12-03T15:56:45.418Z,27.13
2022-12-03T15:59:48.055Z,27.05
2022-12-03T16:02:53.089Z,22.80
2022-12-03T16:05:55.993Z,24.63
2022-12-03T16:08:58.251Z,32.70
2022-12-03T16:12:00.787Z,23.87
2022-12-03T16:15:03.248Z,25.73
2022-12-03T16:18:05.882Z,24.58
2022-12-03T16:21:08.143Z,25.90
2022-12-03T16:24:10.704Z,35.10
2022-12-03T16:27:12.993Z,75.50
2022-12-03T16:30:15.763Z,31.42
2022-12-03T16:33:21.255Z,27.73
2022-12-03T16:36:28.258Z,26.00
2022-12-03T16:39:30.690Z,32.25
2022-12-03T16:42:33.262Z,27.13
2022-12-03T16:45:54.249Z,29.60
2022-12-03T16:48:58.228Z,26.50
2022-12-03T16:52:00.487Z,37.00
2022-12-03T16:55:03.298Z,28.80
2022-12-03T16:58:05.896Z,28.75
2022-12-03T17:01:08.519Z,27.92
2022-12-03T17:04:10.885Z,24.95
2022-12-03T17:07:13.469Z,29.55
2022-12-03T17:10:15.761Z,30.65
2022-12-03T17:13:18.982Z,30.90
2022-12-03T17:16:23.857Z,32.92
2022-12-03T17:19:26.583Z,33.83
2022-12-03T17:22:28.788Z,49.65
2022-12-03T17:25:31.337Z,26.98
2022-12-03T17:28:33.626Z,32.00
2022-12-03T17:31:41.699Z,31.70
2022-12-03T17:34:44.657Z,26.98
2022-12-03T17:37:47.155Z,32.15
2022-12-03T17:40:49.435Z,38.92
2022-12-03T17:43:53.866Z,33.17
2022-12-03T17:46:56.208Z,32.13
2022-12-03T17:49:58.878Z,30.70
2022-12-03T17:53:01.392Z,34.95
2022-12-03T17:56:04.131Z,35.42
2022-12-03T17:59:06.421Z,34.83
2022-12-03T18:02:09.035Z,34.17
2022-12-03T18:05:11.727Z,38.05
2022-12-03T18:08:13.963Z,35.90
2022-12-03T18:11:16.553Z,37.10
2022-12-03T18:14:18.795Z,32.33
2022-12-03T18:17:21.322Z,35.40
2022-12-03T18:20:23.671Z,33.45
2022-12-03T18:23:26.783Z,36.90
2022-12-03T18:26:29.259Z,41.67
2022-12-03T18:29:32.010Z,37.95
2022-12-03T18:32:34.285Z,36.47
2022-12-03T18:35:37.022Z,40.12
2022-12-03T18:38:39.328Z,35.53
2022-12-03T18:41:41.882Z,42.08
2022-12-03T18:44:49.483Z,39.78
2022-12-03T18:47:52.472Z,35.90
2022-12-03T18:50:56.492Z,41.15
2022-12-03T18:53:59.112Z,40.20
2022-12-03T18:57:01.483Z,39.30
2022-12-03T19:00:13.044Z,41.13
2022-12-03T19:03:15.954Z,37.55
2022-12-03T19:06:21.450Z,36.90
2022-12-03T19:09:23.895Z,41.05
2022-12-03T19:12:26.415Z,35.25
2022-12-03T19:15:28.714Z,40.88
2022-12-03T19:18:31.333Z,38.25
2022-12-03T19:21:34.119Z,33.80
2022-12-03T19:24:36.713Z,42.30
2022-12-03T19:27:39.004Z,36.95
2022-12-03T19:30:41.565Z,36.03
2022-12-03T19:33:44.289Z,36.38
2022-12-03T19:36:47.594Z,34.08
2022-12-03T19:39:53.515Z,37.85
2022-12-03T19:42:56.285Z,36.60
2022-12-03T19:46:06.396Z,34.70
2022-12-03T19:49:09.969Z,34.75
2022-12-03T19:52:12.221Z,43.90
2022-12-03T19:55:19.454Z,41.42
2022-12-03T19:58:22.332Z,41.08
2022-12-03T20:01:27.347Z,37.93
2022-12-03T20:04:29.927Z,38.05
2022-12-03T20:07:32.265Z,39.63
2022-12-03T20:10:36.287Z,40.08
2022-12-03T20:13:38.995Z,37.67
2022-12-03T20:16:43.563Z,36.08
2022-12-03T20:19:45.967Z,34.80
2022-12-03T20:22:48.867Z,37.72
2022-12-03T20:25:51.131Z,35.55
2022-12-03T20:28:55.188Z,35.67
2022-12-03T20:31:57.693Z,37.03
2022-12-03T20:35:00.357Z,34.97
2022-12-03T20:38:02.629Z,40.58
2022-12-03T20:41:07.851Z,35.40
2022-12-03T20:44:10.172Z,34.65
2022-12-03T20:47:12.779Z,35.42
2022-12-03T20:50:15.147Z,36.10
2022-12-03T20:53:24.788Z,36.30
2022-12-03T20:56:33.296Z,32.30
2022-12-03T20:59:35.871Z,32.65
2022-12-03T21:02:38.407Z,32.78
2022-12-03T21:05:42.619Z,38.28
2022-12-03T21:08:45.804Z,36.33
2022-12-03T21:11:48.402Z,39.63
2022-12-03T21:14:50.925Z,39.53
2022-12-03T21:17:53.742Z,34.88
2022-12-03T21:20:56.259Z,36.03
2022-12-03T21:23:58.778Z,36.90
2022-12-03T21:27:01.096Z,35.90
2022-12-03T21:30:04.264Z,37.05
2022-12-03T21:33:06.924Z,42.88
2022-12-03T21:36:10.530Z,36.53
2022-12-03T21:39:13.113Z,36.08
2022-12-03T21:42:34.007Z,38.63
2022-12-03T21:45:40.602Z,38.45
2022-12-03T21:48:44.616Z,40.70
2022-12-03T21:51:47.050Z,40.90
2022-12-03T21:54:52.463Z,39.08
2022-12-03T21:57:54.684Z,39.90
2022-12-03T22:01:25.599Z,41.70
2022-12-03T22:04:30.519Z,35.45
2022-12-03T22:07:34.435Z,45.83
2022-12-03T22:10:37.030Z,44.00
2022-12-03T22:13:40.377Z,37.70
2022-12-03T22:16:42.868Z,44.70
2022-12-03T22:19:45.160Z,40.08
2022-12-03T22:22:47.651Z,41.45
2022-12-03T22:25:58.760Z,41.20
2022-12-03T22:29:01.307Z,39.80
2022-12-03T22:32:04.089Z,37.63
2022-12-03T22:35:06.949Z,41.05
2022-12-03T22:38:09.182Z,42.20
2022-12-03T22:41:13.294Z,43.28
2022-12-03T22:44:16.414Z,37.53
2022-12-03T22:47:19.025Z,39.38
2022-12-03T22:50:21.345Z,37.25
2022-12-03T22:53:23.942Z,37.72
2022-12-03T22:56:27.721Z,39.28
2022-12-03T23:02:33.337Z,38.70
2022-12-03T23:05:38.723Z,38.88
2022-12-03T23:08:41.000Z,40.03
2022-12-03T23:11:45.421Z,39.65
2022-12-03T23:14:47.660Z,35.92
2022-12-03T23:17:50.246Z,40.12
2022-12-03T23:20:54.522Z,39.38
2022-12-03T23:23:58.710Z,44.88
2022-12-03T23:27:00.975Z,38.67
2022-12-03T23:30:04.558Z,34.90
2022-12-03T23:33:07.103Z,37.25
2022-12-03T23:36:10.493Z,38.65
2022-12-03T23:39:12.726Z,37.53
2022-12-03T23:42:15.470Z,36.63
2022-12-03T23:45:17.773Z,34.70
2022-12-03T23:48:20.280Z,36.72
2022-12-03T23:51:24.601Z,33.45
2022-12-03T23:54:27.253Z,35.42
2022-12-03T23:57:29.533Z,35.60
